Time;durP1;ratioP1;P1;durP2;ratioP2;P2;SDS_P1;SDS_P2;PMS_P1;PMS_P2;Temp;Humidity;BMP_temperature;BMP_pressure;BME280_temperature;BME280_humidity;BME280_pressure;Samples;Min_cycle;Max_cycle;Signal;HPM_P1;HPM_P2
2023/07/28 00:00:50;;;;;;;2.13;1.60;;;;;;;20.97;38.88;99629.84;3110243;28;20580;-70
2023/07/28 00:02:21;;;;;;;3.15;1.60;;;;;;;20.95;38.80;99632.66;3109970;28;20128;-70
2023/07/28 00:03:53;;;;;;;1.98;1.70;;;;;;;20.89;39.03;99631.41;3110437;28;20151;-70
2023/07/28 00:05:24;;;;;;;4.53;1.70;;;;;;;20.87;39.02;99635.16;3109978;28;20443;-70
2023/07/28 00:06:57;;;;;;;2.30;1.48;;;;;;;20.84;39.25;99643.38;3109632;28;20132;-70
2023/07/28 00:08:28;;;;;;;3.78;1.63;;;;;;;20.81;39.19;99648.97;3104078;28;20100;-72
2023/07/28 00:10:00;;;;;;;3.30;1.70;;;;;;;20.79;39.25;99646.44;3098065;28;20097;-71
2023/07/28 00:11:30;;;;;;;5.28;1.70;;;;;;;20.79;39.34;99643.78;3097688;28;20104;-70
2023/07/28 00:13:02;;;;;;;2.13;1.58;;;;;;;20.78;39.18;99642.13;3101646;28;20470;-70
2023/07/28 00:14:33;;;;;;;3.05;1.50;;;;;;;20.79;39.32;99640.31;3110101;28;20054;-70
2023/07/28 00:16:05;;;;;;;3.08;1.30;;;;;;;20.74;39.25;99642.56;3101182;28;20522;-70
2023/07/28 00:17:36;;;;;;;5.18;1.90;;;;;;;20.72;39.29;99637.38;3099593;28;20080;-70
2023/07/28 00:19:08;;;;;;;5.18;3.17;;;;;;;20.72;39.31;99640.03;3110059;28;20054;-71
2023/07/28 00:20:39;;;;;;;2.42;1.75;;;;;;;20.69;39.39;99637.66;3110097;28;20054;-70
2023/07/28 00:22:12;;;;;;;5.70;1.73;;;;;;;20.69;39.38;99637.66;3110035;28;20060;-70
2023/07/28 00:23:43;;;;;;;2.45;1.60;;;;;;;20.64;39.25;99640.72;3099943;28;20066;-70
2023/07/28 00:25:14;;;;;;;5.18;1.42;;;;;;;20.63;39.38;99636.41;3097869;28;20050;-70
2023/07/28 00:26:45;;;;;;;4.80;1.40;;;;;;;20.62;39.12;99640.03;3097846;28;20643;-69
2023/07/28 00:28:17;;;;;;;1.63;1.52;;;;;;;20.62;39.25;99636.56;3107310;28;20074;-70
2023/07/28 00:29:49;;;;;;;2.45;1.67;;;;;;;20.63;39.24;99641.69;3109906;28;20046;-71
2023/07/28 00:31:21;;;;;;;2.28;1.60;;;;;;;20.64;39.27;99642.53;3109813;28;20050;-70
2023/07/28 00:32:53;;;;;;;3.58;1.65;;;;;;;20.62;39.28;99640.03;3109731;28;20053;-69
2023/07/28 00:34:24;;;;;;;2.40;1.40;;;;;;;20.59;39.32;99635.00;3109573;28;20057;-69
2023/07/28 00:35:55;;;;;;;2.60;1.90;;;;;;;20.56;39.36;99634.47;3109498;28;20444;-69
2023/07/28 00:37:28;;;;;;;3.60;1.88;;;;;;;20.59;39.30;99635.00;3110163;28;20061;-70
2023/07/28 00:38:59;;;;;;;3.45;1.75;;;;;;;20.58;39.47;99632.50;3098378;28;20161;-69
2023/07/28 00:40:31;;;;;;;2.75;1.63;;;;;;;20.59;39.27;99635.00;3101025;28;20071;-69
2023/07/28 00:42:02;;;;;;;3.33;1.55;;;;;;;20.56;39.65;99632.66;3109655;28;20050;-70
2023/07/28 00:43:34;;;;;;;1.77;1.52;;;;;;;20.56;39.32;99634.47;3108263;28;20058;-70
2023/07/28 00:45:06;;;;;;;2.35;1.50;;;;;;;20.55;39.38;99627.47;3109636;28;20065;-70
2023/07/28 00:46:38;;;;;;;2.28;1.30;;;;;;;20.55;39.36;99628.31;3109626;28;20519;-70
2023/07/28 00:48:12;;;;;;;1.88;1.60;;;;;;;20.54;39.39;99633.75;3109377;28;20111;-70
2023/07/28 00:49:44;;;;;;;2.42;1.30;;;;;;;20.51;39.67;99634.81;3110066;28;20057;-70
2023/07/28 00:51:16;;;;;;;3.25;1.77;;;;;;;20.50;39.52;99630.53;3108303;28;20060;-71
2023/07/28 00:52:49;;;;;;;5.03;1.90;;;;;;;20.50;39.57;99635.81;3107720;28;20057;-70
2023/07/28 00:54:20;;;;;;;2.03;1.42;;;;;;;20.45;39.75;99643.31;3097385;28;20050;-70
2023/07/28 00:55:52;;;;;;;2.05;1.75;;;;;;;20.44;39.67;99631.06;3097679;28;20054;-70
2023/07/28 00:57:23;;;;;;;4.00;1.77;;;;;;;20.36;39.86;99634.38;3106272;28;20519;-70
2023/07/28 00:58:55;;;;;;;2.65;1.50;;;;;;;20.34;40.01;99635.47;3109284;28;20179;-70
2023/07/28 01:00:26;;;;;;;2.65;1.73;;;;;;;20.30;39.91;99631.44;3109476;28;20124;-70
2023/07/28 01:01:58;;;;;;;2.88;1.33;;;;;;;20.29;39.94;99635.03;3109424;28;20092;-70
2023/07/28 01:03:29;;;;;;;3.53;1.83;;;;;;;20.30;40.07;99631.44;3109399;28;20046;-71
2023/07/28 01:05:01;;;;;;;3.25;1.60;;;;;;;20.30;40.10;99639.38;3109465;28;20137;-71
2023/07/28 01:06:40;;;;;;;3.25;1.50;;;;;;;20.30;40.04;99631.44;3109211;28;20065;-71
2023/07/28 01:08:21;;;;;;;3.22;1.70;;;;;;;20.25;40.04;99631.84;3105347;28;20502;-71
2023/07/28 01:09:57;;;;;;;1.70;1.60;;;;;;;20.22;40.17;99627.66;3102321;28;20050;-70
2023/07/28 01:11:30;;;;;;;3.13;1.48;;;;;;;20.21;40.29;99631.28;3109219;28;20053;-70
2023/07/28 01:13:01;;;;;;;4.68;1.50;;;;;;;20.20;40.34;99620.81;3109138;28;20120;-70
2023/07/28 01:14:32;;;;;;;2.20;1.50;;;;;;;20.21;40.41;99625.16;3109160;28;20500;-71
2023/07/28 01:16:03;;;;;;;1.88;1.65;;;;;;;20.19;40.60;99627.94;3100677;28;20480;-71
2023/07/28 01:17:35;;;;;;;2.28;1.42;;;;;;;20.13;40.69;99630.28;3099237;28;20065;-71
2023/07/28 01:19:07;;;;;;;3.10;1.83;;;;;;;20.10;40.88;99628.75;3107972;28;20049;-71
2023/07/28 01:20:40;;;;;;;2.88;1.85;;;;;;;20.10;40.83;99628.75;3108891;28;20192;-72
2023/07/28 01:22:36;;;;;;;3.80;1.95;;;;;;;19.96;40.95;99621.19;3108990;28;20511;-72
2023/07/28 01:24:16;;;;;;;3.28;1.90;;;;;;;19.89;41.11;99620.88;3100221;28;20050;-72
2023/07/28 01:26:01;;;;;;;2.80;1.83;;;;;;;19.84;41.27;99623.06;3109109;28;20049;-71
2023/07/28 01:27:35;;;;;;;3.60;1.52;;;;;;;19.79;41.50;99625.31;3108882;28;20049;-72
2023/07/28 01:29:07;;;;;;;3.15;1.80;;;;;;;19.72;41.59;99624.97;3108930;28;20128;-72
2023/07/28 01:30:39;;;;;;;2.30;1.60;;;;;;;19.70;41.69;99626.94;3109226;28;20046;-72
2023/07/28 01:32:11;;;;;;;5.95;2.08;;;;;;;19.69;41.69;99625.22;3108886;28;20058;-72
2023/07/28 01:33:43;;;;;;;3.28;1.90;;;;;;;19.68;41.69;99630.66;3109062;28;20487;-72
2023/07/28 01:35:14;;;;;;;3.40;1.60;;;;;;;19.67;41.84;99635.13;3098980;28;20046;-71
2023/07/28 01:36:46;;;;;;;7.70;1.90;;;;;;;19.62;41.87;99629.34;3108725;28;20049;-71
2023/07/28 01:38:17;;;;;;;3.63;1.67;;;;;;;19.62;41.98;99625.88;3104147;28;20046;-71
2023/07/28 01:39:49;;;;;;;3.97;2.25;;;;;;;19.61;42.04;99637.38;3108633;28;20056;-71
2023/07/28 01:41:20;;;;;;;3.53;1.50;;;;;;;19.61;42.12;99627.69;3106476;28;20054;-71
2023/07/28 01:42:53;;;;;;;4.60;1.70;;;;;;;19.63;41.85;99633.66;3108651;28;20061;-71
2023/07/28 01:44:24;;;;;;;2.97;1.85;;;;;;;19.65;41.96;99629.13;3108827;28;20048;-71
2023/07/28 01:45:55;;;;;;;5.95;1.80;;;;;;;19.65;42.00;99633.56;3100365;28;20058;-71
2023/07/28 01:47:29;;;;;;;3.83;1.98;;;;;;;19.64;42.05;99631.84;3104754;28;20132;-71
2023/07/28 01:49:00;;;;;;;2.40;1.70;;;;;;;19.64;42.06;99626.56;3108812;28;20119;-71
2023/07/28 01:50:31;;;;;;;3.60;2.10;;;;;;;19.64;41.97;99629.19;3108938;28;20060;-71
2023/07/28 01:52:04;;;;;;;1.85;1.40;;;;;;;19.63;42.00;99636.28;3107353;28;20049;-71
2023/07/28 01:53:34;;;;;;;4.60;1.98;;;;;;;19.61;42.21;99632.97;3099271;28;20113;-73
2023/07/28 01:55:07;;;;;;;5.03;2.00;;;;;;;19.61;42.21;99635.59;3099709;28;20133;-70
2023/07/28 01:56:39;;;;;;;3.08;1.63;;;;;;;19.57;42.34;99647.38;3108992;28;20507;-70
2023/07/28 01:58:11;;;;;;;4.47;2.05;;;;;;;19.57;42.30;99633.34;3108874;28;20050;-67
2023/07/28 01:59:43;;;;;;;3.92;1.73;;;;;;;19.52;42.33;99639.00;3108399;28;20105;-66
2023/07/28 02:01:16;;;;;;;4.55;2.10;;;;;;;19.49;42.36;99636.63;3108848;28;20570;-67
2023/07/28 02:02:46;;;;;;;4.03;1.88;;;;;;;19.46;42.41;99639.53;3109050;28;20062;-67
2023/07/28 02:04:18;;;;;;;4.47;1.92;;;;;;;19.47;42.58;99642.06;3108697;28;20141;-67
2023/07/28 02:05:50;;;;;;;4.55;1.60;;;;;;;19.43;42.51;99645.94;3108507;28;20045;-67
2023/07/28 02:07:21;;;;;;;2.88;1.70;;;;;;;19.41;42.57;99653.13;3106753;28;20201;-67
2023/07/28 02:08:53;;;;;;;5.57;2.03;;;;;;;19.39;42.55;99648.94;3096591;28;20444;-67
2023/07/28 02:10:26;;;;;;;5.40;2.13;;;;;;;19.36;42.63;99649.22;3096554;28;20054;-68
2023/07/28 02:11:57;;;;;;;2.70;1.63;;;;;;;19.29;42.53;99656.81;3105527;28;20081;-67
2023/07/28 02:13:29;;;;;;;4.43;2.00;;;;;;;19.27;42.88;99646.38;3108608;28;20487;-67
2023/07/28 02:15:01;;;;;;;4.22;2.10;;;;;;;19.29;42.92;99655.00;3108192;28;20058;-68
2023/07/28 02:16:32;;;;;;;4.70;2.08;;;;;;;19.28;42.98;99648.03;3095958;28;20058;-67
2023/07/28 02:18:04;;;;;;;4.88;2.58;;;;;;;19.25;42.79;99647.47;3096322;28;20046;-67
2023/07/28 02:19:35;;;;;;;2.65;1.83;;;;;;;19.24;42.88;99657.19;3101533;28;20523;-67
2023/07/28 02:21:09;;;;;;;4.40;2.25;;;;;;;19.24;42.74;99654.53;3108276;28;20056;-67
2023/07/28 02:22:40;;;;;;;4.50;1.98;;;;;;;19.20;42.85;99636.47;3100372;28;20046;-68
2023/07/28 02:24:12;;;;;;;4.03;2.35;;;;;;;19.27;42.84;99653.47;3096123;28;20051;-67
2023/07/28 02:25:42;;;;;;;4.53;2.17;;;;;;;19.22;42.96;99651.19;3098963;28;20046;-67
2023/07/28 02:27:14;;;;;;;5.25;2.78;;;;;;;19.20;42.92;99649.66;3108519;28;20061;-68
2023/07/28 02:28:48;;;;;;;3.42;1.92;;;;;;;19.18;43.04;99657.69;3108191;28;20515;-70
2023/07/28 02:30:18;;;;;;;;;;;;;;;18.92;43.31;99649.28;3107938;28;20108;-71
2023/07/28 02:31:50;;;;;;;3.65;2.40;;;;;;;18.97;43.40;99652.41;3108701;28;20008;-71
2023/07/28 02:33:21;;;;;;;6.10;2.47;;;;;;;19.01;43.29;99659.09;3108097;28;20049;-71
2023/07/28 02:34:52;;;;;;;3.53;2.10;;;;;;;18.99;43.40;99647.84;3108161;28;20053;-72
2023/07/28 02:36:23;;;;;;;5.32;2.28;;;;;;;18.98;43.51;99653.22;3107020;28;20065;-69
2023/07/28 02:37:55;;;;;;;2.65;1.95;;;;;;;18.93;43.72;99643.06;3095823;28;20054;-70
2023/07/28 02:39:26;;;;;;;5.35;2.28;;;;;;;18.91;43.79;99644.16;3096196;28;20058;-70
2023/07/28 02:40:58;;;;;;;3.20;2.30;;;;;;;18.88;43.78;99642.59;3096050;28;20065;-70
2023/07/28 02:42:28;;;;;;;4.20;2.47;;;;;;;18.88;43.73;99650.53;3103745;28;20041;-71
2023/07/28 02:44:02;;;;;;;4.18;2.05;;;;;;;18.84;43.86;99647.31;3107834;28;20192;-70
2023/07/28 02:45:33;;;;;;;7.57;2.08;;;;;;;18.81;44.04;99652.84;3102493;28;20069;-70
2023/07/28 02:47:05;;;;;;;4.22;1.98;;;;;;;18.82;43.96;99651.88;3101268;28;20825;-70
2023/07/28 02:48:37;;;;;;;4.25;2.10;;;;;;;18.81;44.14;99652.84;3108280;28;20472;-70
2023/07/28 02:50:09;;;;;;;6.70;2.15;;;;;;;18.82;44.02;99651.88;3107977;28;20053;-70
2023/07/28 02:51:41;;;;;;;8.65;2.50;;;;;;;18.84;44.02;99649.94;3103737;28;20124;-71
2023/07/28 02:53:13;;;;;;;6.38;2.03;;;;;;;18.89;44.04;99661.91;3104030;28;20150;-71
2023/07/28 02:54:44;;;;;;;4.20;2.20;;;;;;;18.93;44.01;99653.63;3096634;28;20057;-70
2023/07/28 02:56:16;;;;;;;5.90;2.17;;;;;;;18.97;43.94;99656.84;3108294;28;20053;-71
2023/07/28 02:57:48;;;;;;;5.97;2.45;;;;;;;19.00;43.78;99648.69;3108040;28;20061;-71
2023/07/28 02:59:22;;;;;;;5.95;2.25;;;;;;;19.02;44.02;99650.22;3107466;28;20439;-70
2023/07/28 03:00:54;;;;;;;3.17;2.17;;;;;;;18.99;43.93;99649.63;3107501;28;20050;-68
2023/07/28 03:02:25;;;;;;;3.88;2.05;;;;;;;18.97;43.99;99659.47;3107878;28;20065;-68
2023/07/28 03:03:57;;;;;;;6.75;2.50;;;;;;;18.96;43.95;99653.38;3107958;28;20053;-68
2023/07/28 03:05:29;;;;;;;5.55;2.80;;;;;;;19.01;44.09;99655.63;3107675;28;20104;-69
2023/07/28 03:06:59;;;;;;;4.05;1.90;;;;;;;19.04;43.79;99652.72;3095198;28;20042;-69
2023/07/28 03:08:31;;;;;;;6.97;1.90;;;;;;;19.06;43.74;99650.81;3101317;28;20046;-69
2023/07/28 03:10:02;;;;;;;5.63;2.20;;;;;;;19.07;43.83;99653.31;3095545;28;20143;-69
2023/07/28 03:11:34;;;;;;;3.15;1.95;;;;;;;19.09;43.79;99659.31;3104132;28;20515;-67
2023/07/28 03:13:05;;;;;;;3.00;2.40;;;;;;;19.12;43.79;99654.75;3105745;28;20147;-67
2023/07/28 03:14:38;;;;;;;3.97;2.30;;;;;;;19.14;43.73;99666.84;3107644;28;20046;-67
2023/07/28 03:16:09;;;;;;;3.00;2.08;;;;;;;19.13;43.49;99659.88;3098396;28;20051;-68
2023/07/28 03:17:41;;;;;;;7.95;3.10;;;;;;;19.17;43.78;99663.13;3103892;28;20077;-68
2023/07/28 03:19:12;;;;;;;5.78;1.98;;;;;;;19.16;43.75;99664.06;3100790;28;20054;-67
2023/07/28 03:20:43;;;;;;;8.73;2.85;;;;;;;19.17;43.65;99665.75;3095448;28;20060;-65
2023/07/28 03:22:14;;;;;;;4.78;2.50;;;;;;;19.18;43.81;99670.06;3100924;28;20435;-65
2023/07/28 03:23:46;;;;;;;4.13;2.63;;;;;;;19.18;43.80;99668.25;3099539;28;20054;-65
2023/07/28 03:25:17;;;;;;;7.47;2.20;;;;;;;19.16;43.73;99659.63;3099790;28;20419;-65
2023/07/28 03:26:49;;;;;;;4.00;2.20;;;;;;;19.23;43.69;99663.44;3107888;28;20050;-66
2023/07/28 03:28:20;;;;;;;5.10;2.60;;;;;;;19.23;43.67;99674.00;3107528;28;20060;-67
2023/07/28 03:29:53;;;;;;;4.05;2.20;;;;;;;19.22;43.54;99666.19;3107929;28;20104;-67
2023/07/28 03:31:24;;;;;;;4.22;2.20;;;;;;;19.18;43.74;99667.44;3107547;28;20054;-67
2023/07/28 03:32:56;;;;;;;5.22;3.30;;;;;;;19.14;43.70;99661.56;3107689;28;20127;-68
2023/07/28 03:34:27;;;;;;;4.82;2.65;;;;;;;19.15;43.71;99672.97;3104453;28;20053;-66
2023/07/28 03:35:58;;;;;;;4.72;2.70;;;;;;;19.12;43.70;99676.69;3095420;28;20173;-67
2023/07/28 03:37:30;;;;;;;5.72;2.60;;;;;;;19.11;43.87;99685.59;3106601;28;20096;-67
2023/07/28 03:39:01;;;;;;;4.28;2.33;;;;;;;19.09;43.99;99683.06;3097062;28;20054;-67
2023/07/28 03:40:33;;;;;;;5.30;2.63;;;;;;;19.10;43.81;99684.72;3099663;28;20138;-67
2023/07/28 03:42:04;;;;;;;3.55;2.50;;;;;;;19.13;43.85;99681.00;3095701;28;20053;-67
2023/07/28 03:43:36;;;;;;;6.15;2.30;;;;;;;19.16;43.77;99686.03;3103283;28;20068;-66
2023/07/28 03:45:11;;;;;;;7.35;2.53;;;;;;;19.21;43.74;99690.94;3105404;28;20408;-67
2023/07/28 03:46:42;;;;;;;5.18;2.33;;;;;;;19.21;43.70;99693.56;3102431;28;20065;-66
2023/07/28 03:48:13;;;;;;;5.13;2.65;;;;;;;19.24;43.68;99696.78;3107550;28;20050;-68
2023/07/28 03:49:44;;;;;;;5.75;2.67;;;;;;;19.27;43.55;99696.53;3103280;28;20080;-66
2023/07/28 03:51:16;;;;;;;7.53;2.28;;;;;;;19.29;43.50;99699.91;3106489;28;20058;-66
2023/07/28 03:52:47;;;;;;;13.75;2.72;;;;;;;19.33;43.44;99697.84;3105787;28;20054;-66
2023/07/28 03:54:19;;;;;;;7.32;2.60;;;;;;;19.33;43.26;99701.31;3095449;28;20058;-65
2023/07/28 03:55:49;;;;;;;9.85;2.80;;;;;;;19.36;43.32;99702.84;3105057;28;20057;-67
2023/07/28 03:57:21;;;;;;;4.82;2.70;;;;;;;19.36;43.60;99705.50;3107933;28;20046;-67
2023/07/28 03:58:54;;;;;;;6.15;2.42;;;;;;;19.41;43.27;99713.88;3107500;28;20049;-66
2023/07/28 04:00:26;;;;;;;5.80;2.50;;;;;;;19.44;43.15;99710.16;3107045;28;20515;-67
2023/07/28 04:01:58;;;;;;;5.50;2.78;;;;;;;19.45;43.10;99714.44;3107768;28;20601;-68
2023/07/28 04:03:29;;;;;;;8.70;3.00;;;;;;;19.45;43.28;99712.66;3105272;28;20053;-67
2023/07/28 04:05:01;;;;;;;7.47;3.17;;;;;;;19.48;43.08;99709.75;3105515;28;20046;-69
2023/07/28 04:06:41;;;;;;;4.93;2.20;;;;;;;19.50;43.13;99709.63;3098062;28;20058;-68
2023/07/28 04:08:13;;;;;;;5.88;2.08;;;;;;;19.52;43.28;99712.97;3099984;28;20049;-69
2023/07/28 04:09:44;;;;;;;6.20;2.50;;;;;;;19.55;43.19;99703.00;3095787;28;20061;-69
2023/07/28 04:11:16;;;;;;;8.48;2.42;;;;;;;19.60;43.10;99710.53;3103392;28;20046;-69
2023/07/28 04:12:46;;;;;;;5.40;2.15;;;;;;;19.63;43.24;99704.16;3107508;28;20507;-69
2023/07/28 04:14:18;;;;;;;8.32;2.67;;;;;;;19.66;43.24;99711.84;3107548;28;20145;-69
2023/07/28 04:15:50;;;;;;;6.45;2.78;;;;;;;19.69;43.22;99709.78;3105400;28;20050;-70
2023/07/28 04:17:22;;;;;;;6.97;2.03;;;;;;;19.70;43.14;99714.13;3107536;28;20093;-71
2023/07/28 04:18:53;;;;;;;5.40;2.38;;;;;;;19.68;43.03;99723.97;3100930;28;20050;-70
2023/07/28 04:20:25;;;;;;;4.45;2.08;;;;;;;19.70;42.92;99718.53;3097833;28;20141;-69
2023/07/28 04:21:57;;;;;;;8.20;2.70;;;;;;;19.72;42.91;99719.25;3097114;28;20113;-71
2023/07/28 04:23:28;;;;;;;4.93;2.40;;;;;;;19.75;42.86;99721.63;3097526;28;20509;-71
2023/07/28 04:24:59;;;;;;;7.07;1.92;;;;;;;19.75;42.95;99719.00;3097734;28;20046;-73
2023/07/28 04:27:01;;;;;;;189.15;109.82;;;;;;;19.74;42.79;99720.78;3109244;28;20553;-70
2023/07/28 04:30:55;;;;;;;42.58;21.35;;;;;;;19.74;42.90;99720.78;3065063;28;20052;-67
2023/07/28 04:32:29;;;;;;;7.15;4.25;;;;;;;19.78;42.77;99722.19;3106226;28;20049;-72
2023/07/28 04:34:03;;;;;;;6.95;2.75;;;;;;;19.80;42.49;99721.25;3105992;28;20056;-75
2023/07/28 04:35:33;;;;;;;4.57;3.10;;;;;;;19.78;42.66;99724.00;3109587;28;20201;-74
2023/07/28 04:37:06;;;;;;;2.13;1.67;;;;;;;19.75;42.48;99722.47;3109432;28;20656;-74
2023/07/28 04:38:38;;;;;;;5.28;2.47;;;;;;;19.71;42.75;99731.63;3101976;28;20057;-70
2023/07/28 04:40:09;;;;;;;19.35;9.25;;;;;;;19.69;42.56;99727.44;3100595;28;20053;-68
2023/07/28 04:41:41;;;;;;;5.90;2.20;;;;;;;19.64;42.68;99725.16;3097366;28;20057;-71
2023/07/28 04:43:12;;;;;;;6.43;2.70;;;;;;;19.56;42.83;99724.97;3101095;28;20594;-73
2023/07/28 04:44:45;;;;;;;10.40;2.65;;;;;;;19.50;42.87;99722.84;3109133;28;20046;-69
2023/07/28 04:46:17;;;;;;;3.17;2.30;;;;;;;19.52;42.85;99723.53;3102878;28;20058;-73
2023/07/28 04:47:49;;;;;;;25.50;4.38;;;;;;;19.54;42.90;99724.25;3105429;28;20403;-76
2023/07/28 04:49:21;;;;;;;4.43;2.42;;;;;;;19.59;42.98;99726.50;3108652;28;20535;-74
2023/07/28 04:50:52;;;;;;;11.93;7.40;;;;;;;19.63;43.07;99733.22;3109209;28;20511;-72
2023/07/28 04:52:24;;;;;;;18.70;7.60;;;;;;;19.69;42.79;99722.16;3106413;28;20065;-74
2023/07/28 04:53:55;;;;;;;12.98;3.75;;;;;;;19.75;42.88;99733.03;3103156;28;20073;-74
2023/07/28 04:55:27;;;;;;;4.40;2.60;;;;;;;19.78;42.65;99729.28;3109307;28;20041;-74
2023/07/28 04:56:58;;;;;;;6.72;2.28;;;;;;;19.80;42.71;99731.81;3102583;28;20086;-74
2023/07/28 04:58:30;;;;;;;12.32;2.13;;;;;;;19.81;42.68;99733.50;3109217;28;20057;-74
2023/07/28 05:00:01;;;;;;;9.27;3.15;;;;;;;19.83;43.22;99731.56;3105613;28;20448;-73
2023/07/28 05:01:35;;;;;;;5.90;3.45;;;;;;;19.75;43.98;99727.75;3097626;28;20050;-71
2023/07/28 05:03:06;;;;;;;10.98;3.60;;;;;;;19.64;44.57;99733.09;3106485;28;20067;-69
2023/07/28 05:04:38;;;;;;;7.15;3.35;;;;;;;19.60;44.94;99736.94;3102222;28;20072;-72
2023/07/28 05:06:09;;;;;;;8.45;4.30;;;;;;;19.57;45.37;99731.91;3101405;28;20444;-72
2023/07/28 05:07:41;;;;;;;17.20;4.13;;;;;;;19.52;45.87;99734.97;3096974;28;20046;-71
2023/07/28 05:09:12;;;;;;;14.95;4.18;;;;;;;19.57;45.81;99734.56;3096512;28;20133;-69
2023/07/28 05:10:45;;;;;;;10.27;5.30;;;;;;;19.59;45.95;99739.72;3102119;28;20480;-70
2023/07/28 05:12:16;;;;;;;10.02;4.05;;;;;;;19.54;46.12;99738.28;3109208;28;20073;-72
2023/07/28 05:13:48;;;;;;;9.27;4.22;;;;;;;19.56;46.06;99748.75;3108499;28;20076;-69
2023/07/28 05:15:19;;;;;;;9.13;3.65;;;;;;;19.57;46.30;99750.41;3106559;28;20041;-72
2023/07/28 05:16:52;;;;;;;12.95;4.43;;;;;;;19.62;46.55;99748.22;3096445;28;20055;-69
2023/07/28 05:18:23;;;;;;;;;;;;;;;19.47;46.11;99744.22;3099287;28;20566;-69
2023/07/28 05:19:55;;;;;;;11.00;4.18;;;;;;;19.58;46.18;99748.59;3101956;28;19922;-70
2023/07/28 05:21:26;;;;;;;7.18;3.88;;;;;;;19.63;46.02;99741.97;3108445;28;20192;-69
2023/07/28 05:22:58;;;;;;;11.98;3.90;;;;;;;19.70;45.94;99748.47;3106126;28;20069;-70
2023/07/28 05:24:29;;;;;;;8.88;4.07;;;;;;;19.74;45.94;99747.22;3096074;28;20104;-70
2023/07/28 05:26:01;;;;;;;7.60;4.00;;;;;;;19.81;45.61;99749.34;3105924;28;20586;-69
2023/07/28 05:27:32;;;;;;;6.55;3.17;;;;;;;19.84;45.64;99749.09;3108528;28;20053;-70
2023/07/28 05:29:04;;;;;;;7.63;3.47;;;;;;;19.91;45.30;99752.91;3108042;28;20148;-69
2023/07/28 05:30:35;;;;;;;13.50;3.70;;;;;;;19.97;45.10;99755.03;3108140;28;20065;-70
2023/07/28 05:32:09;;;;;;;16.08;3.72;;;;;;;19.98;44.95;99751.41;3096268;28;20070;-69
2023/07/28 05:33:40;;;;;;;9.90;3.67;;;;;;;20.03;45.01;99757.13;3102369;28;20057;-68
2023/07/28 05:35:12;;;;;;;6.45;3.60;;;;;;;20.12;44.99;99753.69;3108627;28;20096;-71
2023/07/28 05:36:43;;;;;;;6.75;3.28;;;;;;;20.19;44.88;99746.06;3108142;28;20042;-71
2023/07/28 05:38:15;;;;;;;7.50;3.33;;;;;;;20.29;44.89;99746.09;3104233;28;20507;-71
2023/07/28 05:39:46;;;;;;;7.57;3.88;;;;;;;20.39;44.59;99754.94;3099155;28;20103;-68
2023/07/28 05:41:18;;;;;;;7.72;3.53;;;;;;;20.50;44.56;99752.19;3096736;28;20137;-72
2023/07/28 05:42:49;;;;;;;13.40;4.18;;;;;;;20.58;44.21;99757.66;3097075;28;20506;-70
2023/07/28 05:44:21;;;;;;;6.38;2.67;;;;;;;20.66;44.10;99752.53;3108097;28;20064;-70
2023/07/28 05:45:52;;;;;;;6.53;3.05;;;;;;;20.77;43.62;99753.44;3100364;28;20122;-69
2023/07/28 05:47:25;;;;;;;12.55;3.30;;;;;;;20.86;43.54;99756.09;3096344;28;20058;-71
2023/07/28 05:48:57;;;;;;;13.82;3.45;;;;;;;20.99;43.52;99753.16;3107269;28;20065;-69
2023/07/28 05:50:28;;;;;;;7.50;3.00;;;;;;;21.12;42.97;99745.81;3108153;28;20550;-68
2023/07/28 05:52:00;;;;;;;7.40;2.10;;;;;;;21.24;42.87;99757.13;3105484;28;20057;-69
2023/07/28 05:53:31;;;;;;;5.57;2.50;;;;;;;21.35;41.86;99758.78;3101836;28;20448;-69
2023/07/28 05:55:03;;;;;;;5.35;2.53;;;;;;;21.43;41.59;99758.13;3099017;28;20054;-68
2023/07/28 05:56:34;;;;;;;9.55;2.33;;;;;;;21.49;41.26;99760.22;3108354;28;20554;-70
2023/07/28 05:58:06;;;;;;;5.40;1.95;;;;;;;21.58;40.97;99757.53;3108417;28;20053;-67
2023/07/28 05:59:38;;;;;;;5.10;2.10;;;;;;;21.65;40.69;99762.28;3108137;28;20158;-65
2023/07/28 06:01:09;;;;;;;3.75;2.55;;;;;;;21.70;40.64;99757.41;3096005;28;20436;-68
2023/07/28 06:02:42;;;;;;;6.22;2.50;;;;;;;21.74;40.11;99758.78;3108309;28;20054;-67
2023/07/28 06:04:13;;;;;;;4.55;2.50;;;;;;;21.75;40.43;99758.66;3108167;28;20061;-70
2023/07/28 06:05:45;;;;;;;6.18;2.20;;;;;;;21.83;39.90;99760.59;3102590;28;20054;-68
2023/07/28 06:07:17;;;;;;;4.60;2.05;;;;;;;21.89;39.76;99760.03;3095687;28;20104;-68
2023/07/28 06:08:49;;;;;;;7.60;2.33;;;;;;;21.91;39.75;99755.41;3097177;28;20512;-69
2023/07/28 06:10:20;;;;;;;7.18;2.60;;;;;;;21.96;39.79;99757.63;3095800;28;20065;-72
2023/07/28 06:11:52;;;;;;;4.57;2.72;;;;;;;22.06;39.84;99757.59;3104223;28;20587;-71
2023/07/28 06:13:23;;;;;;;7.85;2.88;;;;;;;22.17;39.64;99760.13;3107944;28;20454;-66
2023/07/28 06:14:55;;;;;;;4.93;2.10;;;;;;;22.29;38.89;99748.34;3107607;28;20050;-69
2023/07/28 06:16:27;;;;;;;5.07;2.15;;;;;;;22.45;39.03;99756.53;3096429;28;20487;-73
2023/07/28 06:17:59;;;;;;;3.00;2.20;;;;;;;22.63;38.46;99753.91;3100854;28;20049;-70
2023/07/28 06:19:31;;;;;;;4.80;2.33;;;;;;;22.79;38.31;99750.59;3107965;28;20049;-73
2023/07/28 06:21:02;;;;;;;5.68;1.83;;;;;;;22.97;37.92;99752.47;3107774;28;20058;-71
2023/07/28 06:22:34;;;;;;;4.22;2.20;;;;;;;23.12;37.99;99751.81;3107787;28;20107;-69
2023/07/28 06:24:06;;;;;;;9.50;2.95;;;;;;;23.26;37.60;99747.78;3096913;28;20450;-72
2023/07/28 06:25:42;;;;;;;8.70;2.15;;;;;;;23.36;37.02;99751.19;3097610;28;20049;-68
2023/07/28 06:27:14;;;;;;;5.13;2.10;;;;;;;23.40;36.86;99754.41;3108299;28;20060;-69
2023/07/28 06:28:45;;;;;;;9.90;3.13;;;;;;;23.33;37.43;99746.19;3107514;28;20132;-69
2023/07/28 06:30:17;;;;;;;9.23;3.20;;;;;;;23.27;37.43;99752.09;3104151;28;20049;-69
2023/07/28 06:31:48;;;;;;;12.02;2.83;;;;;;;23.25;37.45;99755.91;3107889;28;20064;-68
2023/07/28 06:33:22;;;;;;;7.03;2.83;;;;;;;23.18;37.57;99742.41;3109050;28;20049;-75
2023/07/28 06:34:52;;;;;;;6.18;2.75;;;;;;;23.15;38.02;99745.34;3108583;28;20100;-72
2023/07/28 06:36:24;;;;;;;6.10;2.50;;;;;;;23.12;37.83;99730.56;3107916;28;20492;-73
2023/07/28 06:37:55;;;;;;;8.00;3.40;;;;;;;23.10;37.79;99744.97;3106553;28;20081;-72
2023/07/28 06:39:28;;;;;;;9.90;3.30;;;;;;;23.08;38.29;99745.13;3095545;28;20216;-72
2023/07/28 06:41:01;;;;;;;14.40;3.05;;;;;;;23.11;38.47;99731.56;3097261;28;20133;-73
2023/07/28 06:42:34;;;;;;;14.55;3.47;;;;;;;23.17;38.00;99735.44;3100227;28;20447;-76
2023/07/28 06:44:05;;;;;;;14.07;2.97;;;;;;;23.17;38.23;99732.78;3108460;28;20347;-74
2023/07/28 06:45:37;;;;;;;13.07;3.08;;;;;;;23.25;38.31;99735.50;3098858;28;20090;-75
2023/07/28 06:47:08;;;;;;;11.93;3.30;;;;;;;23.28;38.39;99735.19;3102045;28;20053;-75
2023/07/28 06:48:41;;;;;;;10.25;3.03;;;;;;;23.30;37.93;99729.72;3108209;28;20131;-76
2023/07/28 06:50:14;;;;;;;7.78;2.80;;;;;;;23.26;38.31;99726.53;3108121;28;20053;-75
2023/07/28 06:51:45;;;;;;;8.57;2.72;;;;;;;23.29;38.37;99723.56;3099554;28;20104;-74
2023/07/28 06:53:17;;;;;;;12.20;3.35;;;;;;;23.37;38.49;99722.81;3102931;28;20141;-75
2023/07/28 06:54:49;;;;;;;10.68;3.10;;;;;;;23.43;38.22;99726.69;3096719;28;20046;-74
2023/07/28 06:56:21;;;;;;;13.25;3.30;;;;;;;23.51;38.38;99724.91;3108209;28;20063;-75
2023/07/28 06:57:53;;;;;;;8.05;2.78;;;;;;;23.57;38.13;99723.47;3096116;28;20065;-73
2023/07/28 06:59:23;;;;;;;7.35;3.10;;;;;;;23.59;37.99;99716.16;3098968;28;20050;-75
2023/07/28 07:00:56;;;;;;;5.55;2.50;;;;;;;23.68;37.92;99725.03;3107147;28;20058;-73
2023/07/28 07:02:27;;;;;;;6.82;2.30;;;;;;;23.72;37.38;99714.00;3107705;28;20058;-73
2023/07/28 07:04:01;;;;;;;5.85;2.53;;;;;;;23.81;36.87;99723.69;3100607;28;20117;-72
2023/07/28 07:05:32;;;;;;;12.10;2.83;;;;;;;23.88;36.99;99715.91;3108157;28;20548;-74
2023/07/28 07:07:05;;;;;;;6.07;2.67;;;;;;;23.94;36.80;99720.59;3108142;28;20050;-72
2023/07/28 07:08:36;;;;;;;8.23;2.60;;;;;;;24.00;36.91;99714.63;3100575;28;20455;-76
2023/07/28 07:10:10;;;;;;;6.55;2.75;;;;;;;24.03;36.72;99710.84;3096157;28;20312;-74
2023/07/28 07:11:41;;;;;;;8.55;2.75;;;;;;;24.03;37.14;99708.19;3086491;28;20069;-73
2023/07/28 07:13:13;;;;;;;8.35;3.10;;;;;;;24.01;37.17;99705.66;3107318;28;20057;-73
2023/07/28 07:14:45;;;;;;;6.82;3.10;;;;;;;24.04;37.24;99707.19;3098435;28;20061;-70